createdAt,value
2018-07-25T04:09:59.701Z,1008.02
2018-07-25T04:10:25.187Z,1007.99
2018-07-25T04:10:50.699Z,1008.01
2018-07-25T04:11:16.196Z,1008
2018-07-25T04:11:41.767Z,1008.08
2018-07-25T04:12:07.255Z,1008.05
2018-07-25T04:12:32.747Z,1008.01
2018-07-25T04:12:58.265Z,1008.11
2018-07-25T04:13:23.751Z,1008.06
2018-07-25T04:13:49.272Z,1008.07
2018-07-25T04:14:14.779Z,1008.07
2018-07-25T04:14:40.275Z,1008.08
2018-07-25T04:15:05.759Z,1008.06
2018-07-25T04:15:31.286Z,1008.05
2018-07-25T04:15:56.783Z,1008.1
2018-07-25T04:16:22.280Z,1008.1
2018-07-25T04:16:47.787Z,1008.1
2018-07-25T04:17:13.270Z,1008.07
2018-07-25T04:18:26.586Z,1008.08
2018-07-25T04:18:52.085Z,1008.1
2018-07-25T04:19:17.570Z,1008.07
2018-07-25T04:19:43.081Z,1008.03
2018-07-25T04:20:08.697Z,1008.09
2018-07-25T04:20:34.192Z,1008.1
2018-07-25T04:20:59.706Z,1008.08
2018-07-25T04:21:25.180Z,1008.06
2018-07-25T04:21:50.675Z,1008.03
2018-07-25T04:22:16.182Z,1008.09
2018-07-25T04:22:41.683Z,1008.09
2018-07-25T04:23:07.169Z,1008.08
2018-07-25T04:23:32.670Z,1008.06
2018-07-25T04:23:58.157Z,1008.09
2018-07-25T04:24:23.631Z,1008.07
2018-07-25T04:24:49.301Z,1008.1
2018-07-25T04:25:14.661Z,1008.13
2018-07-25T04:25:40.132Z,1008.09
2018-07-25T04:26:05.638Z,1008.08
2018-07-25T04:26:31.106Z,1008.11
2018-07-25T04:26:56.596Z,1008.09
2018-07-25T04:27:22.105Z,1008.14
2018-07-25T04:27:47.593Z,1008.11
2018-07-25T04:28:13.093Z,1008.08
2018-07-25T04:28:38.579Z,1008.11
2018-07-25T04:29:04.068Z,1008.09
2018-07-25T04:29:29.589Z,1008.13
2018-07-25T04:29:55.097Z,1008.09
2018-07-25T04:30:20.558Z,1008.14
2018-07-25T04:30:46.029Z,1008.1
2018-07-25T04:31:11.520Z,1008.11
2018-07-25T04:31:37.018Z,1008.12
2018-07-25T04:32:02.500Z,1008.12
2018-07-25T04:32:27.982Z,1008.11
2018-07-25T04:32:53.468Z,1008.15
2018-07-25T04:33:18.969Z,1008.16
2018-07-25T04:33:44.464Z,1008.11
2018-07-25T04:34:09.911Z,1008.17
2018-07-25T04:34:35.452Z,1008.21
2018-07-25T04:35:00.942Z,1008.22
2018-07-25T04:35:26.407Z,1008.2
2018-07-25T04:35:51.938Z,1008.17
2018-07-25T04:36:17.408Z,1008.17
2018-07-25T04:36:42.904Z,1008.23
2018-07-25T04:37:08.390Z,1008.19
2018-07-25T04:37:33.889Z,1008.18
2018-07-25T04:37:59.403Z,1008.2
2018-07-25T04:38:24.891Z,1008.24
2018-07-25T04:38:50.412Z,1008.21
2018-07-25T04:39:15.928Z,1008.19
2018-07-25T04:39:41.421Z,1008.24
2018-07-25T04:40:06.916Z,1008.21
2018-07-25T04:40:32.365Z,1008.15
2018-07-25T04:40:57.862Z,1008.17
2018-07-25T04:41:23.355Z,1008.23
2018-07-25T04:41:48.866Z,1008.17
2018-07-25T04:42:14.342Z,1008.2
2018-07-25T04:42:39.912Z,1008.21
2018-07-25T04:43:05.379Z,1008.2
2018-07-25T04:43:30.861Z,1008.19
2018-07-25T04:43:56.383Z,1008.24
2018-07-25T04:44:21.871Z,1008.21
2018-07-25T04:44:47.348Z,1008.2
2018-07-25T04:45:12.841Z,1008.23
2018-07-25T04:45:38.351Z,1008.24
2018-07-25T04:46:03.868Z,1008.22
2018-07-25T04:46:29.425Z,1008.25
2018-07-25T04:46:54.808Z,1008.2
2018-07-25T04:47:20.333Z,1008.2
2018-07-25T04:47:45.821Z,1008.21
2018-07-25T04:48:11.325Z,1008.23
2018-07-25T04:49:19.571Z,1008.19
2018-07-25T04:49:45.073Z,1008.23
2018-07-25T04:50:10.580Z,1008.17
2018-07-25T04:50:36.089Z,1008.22
2018-07-25T04:51:01.592Z,1008.22
2018-07-25T04:51:27.116Z,1008.21
2018-07-25T04:51:52.598Z,1008.21
2018-07-25T04:52:18.086Z,1008.22
2018-07-25T04:52:43.578Z,1008.25
2018-07-25T04:53:09.061Z,1008.23
2018-07-25T04:53:34.559Z,1008.25
2018-07-25T04:54:00.070Z,1008.24
2018-07-25T04:54:25.573Z,1008.23
2018-07-25T04:54:51.057Z,1008.23
2018-07-25T04:55:16.532Z,1008.24
2018-07-25T04:55:42.011Z,1008.25
2018-07-25T04:56:07.563Z,1008.26
2018-07-25T04:56:33.001Z,1008.24
2018-07-25T04:56:58.444Z,1008.28
2018-07-25T04:57:23.980Z,1008.29
2018-07-25T04:57:49.485Z,1008.27
2018-07-25T04:58:14.979Z,1008.28
2018-07-25T04:58:40.482Z,1008.3
2018-07-25T04:59:06.007Z,1008.26
2018-07-25T04:59:31.464Z,1008.28
2018-07-25T04:59:56.954Z,1008.29
2018-07-25T05:00:22.451Z,1008.29
2018-07-25T05:00:47.956Z,1008.31
2018-07-25T05:01:13.452Z,1008.31
2018-07-25T05:01:39.053Z,1008.31
2018-07-25T05:02:04.557Z,1008.31
2018-07-25T05:02:30.081Z,1008.32
2018-07-25T05:02:55.592Z,1008.3
2018-07-25T05:03:21.160Z,1008.3
2018-07-25T05:03:46.603Z,1008.35
2018-07-25T05:04:12.116Z,1008.36
2018-07-25T05:04:37.586Z,1008.35
2018-07-25T05:05:03.072Z,1008.35
2018-07-25T05:05:28.578Z,1008.4
2018-07-25T05:05:54.118Z,1008.35
2018-07-25T05:06:19.579Z,1008.4
2018-07-25T05:06:45.132Z,1008.4
2018-07-25T05:07:10.601Z,1008.37
2018-07-25T05:07:36.125Z,1008.34
2018-07-25T05:08:01.631Z,1008.35
2018-07-25T05:08:27.114Z,1008.38
2018-07-25T05:08:52.666Z,1008.36
2018-07-25T05:09:18.186Z,1008.33
2018-07-25T05:10:31.455Z,1008.39
2018-07-25T05:10:56.943Z,1008.38
2018-07-25T05:11:22.427Z,1008.36
2018-07-25T05:11:47.922Z,1008.36
2018-07-25T05:12:13.399Z,1008.39
2018-07-25T05:12:38.986Z,1008.38
2018-07-25T05:13:04.419Z,1008.41
2018-07-25T05:13:29.906Z,1008.43
2018-07-25T05:13:55.416Z,1008.4
2018-07-25T05:14:20.925Z,1008.42
2018-07-25T05:14:46.411Z,1008.43
2018-07-25T05:15:11.923Z,1008.42
2018-07-25T05:15:37.398Z,1008.43
2018-07-25T05:16:02.898Z,1008.45
2018-07-25T05:16:28.359Z,1008.43
2018-07-25T05:16:53.842Z,1008.45
2018-07-25T05:17:19.306Z,1008.46
2018-07-25T05:17:44.823Z,1008.46
2018-07-25T05:18:10.290Z,1008.44
2018-07-25T05:18:35.791Z,1008.5
2018-07-25T05:19:01.283Z,1008.52
2018-07-25T05:19:26.834Z,1008.5
2018-07-25T05:19:52.335Z,1008.53
2018-07-25T05:20:17.861Z,1008.51
2018-07-25T05:20:43.386Z,1008.51
2018-07-25T05:21:08.875Z,1008.52
2018-07-25T05:21:34.365Z,1008.55
2018-07-25T05:21:59.827Z,1008.56
2018-07-25T05:22:25.324Z,1008.52
2018-07-25T05:22:50.856Z,1008.54
2018-07-25T05:23:16.430Z,1008.55
2018-07-25T05:23:41.909Z,1008.56
2018-07-25T05:24:07.414Z,1008.56
2018-07-25T05:24:32.914Z,1008.59
2018-07-25T05:24:58.408Z,1008.57
2018-07-25T05:25:23.893Z,1008.57
2018-07-25T05:25:49.367Z,1008.58
2018-07-25T05:26:14.857Z,1008.6
2018-07-25T05:26:40.349Z,1008.6
2018-07-25T05:27:05.842Z,1008.59
2018-07-25T05:27:31.336Z,1008.65
2018-07-25T05:27:56.842Z,1008.63
2018-07-25T05:28:22.336Z,1008.66
2018-07-25T05:28:47.801Z,1008.64
2018-07-25T05:29:13.290Z,1008.65
2018-07-25T05:29:38.808Z,1008.66
2018-07-25T05:30:04.405Z,1008.67
2018-07-25T05:30:29.885Z,1008.64
2018-07-25T05:30:55.392Z,1008.65
2018-07-25T05:31:20.906Z,1008.65
2018-07-25T05:32:39.338Z,1008.69
2018-07-25T05:33:04.830Z,1008.72
2018-07-25T05:33:30.347Z,1008.72
2018-07-25T05:33:55.919Z,1008.72
2018-07-25T05:34:21.322Z,1008.73
2018-07-25T05:34:46.825Z,1008.74
2018-07-25T05:35:12.315Z,1008.78
2018-07-25T05:35:37.820Z,1008.73
2018-07-25T05:36:03.325Z,1008.72
2018-07-25T05:36:28.869Z,1008.78
2018-07-25T05:36:54.361Z,1008.71
2018-07-25T05:37:19.863Z,1008.71
2018-07-25T05:37:45.384Z,1008.76
2018-07-25T05:38:10.926Z,1008.72
2018-07-25T05:38:36.397Z,1008.74
2018-07-25T05:39:01.905Z,1008.75
2018-07-25T05:39:27.397Z,1008.76
2018-07-25T05:39:52.948Z,1008.78
2018-07-25T05:40:18.429Z,1008.79
2018-07-25T05:40:43.908Z,1008.79
2018-07-25T05:41:09.413Z,1008.8
2018-07-25T05:41:34.891Z,1008.82
2018-07-25T05:42:00.410Z,1008.82
2018-07-25T05:42:25.945Z,1008.83
2018-07-25T05:42:51.447Z,1008.84
2018-07-25T05:43:16.906Z,1008.85
2018-07-25T05:43:42.484Z,1008.85
2018-07-25T05:44:08.013Z,1008.86
2018-07-25T05:44:33.510Z,1008.88
2018-07-25T05:44:59.040Z,1008.87
2018-07-25T05:45:24.540Z,1008.84
2018-07-25T05:45:50.081Z,1008.86
2018-07-25T05:46:15.561Z,1008.86
2018-07-25T05:46:41.076Z,1008.88
2018-07-25T05:47:06.554Z,1008.89
2018-07-25T05:47:32.036Z,1008.86
2018-07-25T05:47:57.512Z,1008.92
2018-07-25T05:48:23.035Z,1008.89
2018-07-25T05:48:48.556Z,1008.92
2018-07-25T05:49:14.066Z,1008.94
2018-07-25T05:49:39.563Z,1008.89
2018-07-25T05:50:05.076Z,1008.88
2018-07-25T05:50:30.553Z,1008.89
2018-07-25T05:50:56.097Z,1008.88
2018-07-25T05:51:21.575Z,1008.91
2018-07-25T05:52:19.633Z,1008.91
2018-07-25T05:52:45.142Z,1008.87
2018-07-25T05:53:10.629Z,1008.9
2018-07-25T05:53:36.127Z,1008.88
2018-07-25T05:54:01.604Z,1008.88
2018-07-25T05:54:27.117Z,1008.87
2018-07-25T05:54:52.637Z,1008.91
2018-07-25T05:55:18.143Z,1008.87
2018-07-25T05:55:43.593Z,1008.87
2018-07-25T05:56:09.076Z,1008.92
2018-07-25T05:56:34.587Z,1008.9
2018-07-25T05:57:00.088Z,1008.9
2018-07-25T05:57:25.651Z,1008.9
2018-07-25T05:57:51.172Z,1008.93
2018-07-25T05:58:16.777Z,1008.93
2018-07-25T05:58:42.359Z,1008.93
2018-07-25T05:59:07.829Z,1008.95
2018-07-25T05:59:33.360Z,1008.93
2018-07-25T05:59:58.870Z,1008.93
2018-07-25T06:00:24.374Z,1008.91
2018-07-25T06:00:49.897Z,1008.95
2018-07-25T06:01:15.414Z,1008.91
2018-07-25T06:01:40.913Z,1008.96
2018-07-25T06:02:06.463Z,1008.95
2018-07-25T06:02:31.909Z,1008.92
2018-07-25T06:03:29.988Z,1009.03
2018-07-25T06:03:55.428Z,1008.95
2018-07-25T06:04:20.999Z,1008.98
2018-07-25T06:04:46.415Z,1008.95
2018-07-25T06:05:11.929Z,1008.99
2018-07-25T06:05:37.445Z,1008.98
2018-07-25T06:06:02.985Z,1008.99
2018-07-25T06:06:28.452Z,1008.99
2018-07-25T06:06:53.941Z,1009.04
2018-07-25T06:07:19.503Z,1009.06
2018-07-25T06:07:44.997Z,1009.02
2018-07-25T06:08:10.514Z,1009.03
2018-07-25T06:08:36.045Z,1009.06
2018-07-25T06:09:01.496Z,1009.09
2018-07-25T06:09:27.046Z,1008.99
2018-07-25T06:09:52.556Z,1009.05
2018-07-25T06:10:18.064Z,1009.03
2018-07-25T06:10:43.578Z,1009
2018-07-25T06:11:09.091Z,1009.07
2018-07-25T06:11:34.637Z,1009.03
2018-07-25T06:12:00.189Z,1009.04
2018-07-25T06:12:25.692Z,1009.05
2018-07-25T06:12:51.220Z,1009.03
2018-07-25T06:13:16.836Z,1009.08
2018-07-25T06:13:42.169Z,1009.06
2018-07-25T06:14:07.643Z,1009.07
2018-07-25T06:14:33.161Z,1009.06
2018-07-25T06:14:58.629Z,1009.03
2018-07-25T06:15:24.098Z,1009.02
2018-07-25T06:15:49.574Z,1009.04
2018-07-25T06:16:15.062Z,1009.04
2018-07-25T06:16:40.557Z,1009.03
2018-07-25T06:17:06.046Z,1009.04
2018-07-25T06:17:31.554Z,1009.04
2018-07-25T06:17:57.040Z,1009.06
2018-07-25T06:18:22.521Z,1009.01
2018-07-25T06:18:48.016Z,1009.04
2018-07-25T06:19:13.508Z,1009.02
2018-07-25T06:19:39.034Z,1009.02
2018-07-25T06:20:04.618Z,1009.03
2018-07-25T06:20:30.187Z,1009.01
2018-07-25T06:20:55.629Z,1009.04
2018-07-25T06:21:21.133Z,1009.03
2018-07-25T06:21:46.630Z,1009.07
2018-07-25T06:22:12.109Z,1009.03
2018-07-25T06:22:37.594Z,1009.02
2018-07-25T06:23:03.114Z,1009.05
2018-07-25T06:23:28.586Z,1009.03
2018-07-25T06:23:54.057Z,1009.07
2018-07-25T06:24:19.576Z,1009.04
2018-07-25T06:24:45.034Z,1009.09
2018-07-25T06:25:10.559Z,1009.06
2018-07-25T06:25:36.019Z,1009.07
2018-07-25T06:26:01.532Z,1009.04
2018-07-25T06:26:27.082Z,1009.05
2018-07-25T06:26:52.595Z,1009.05
2018-07-25T06:27:18.113Z,1009.06
2018-07-25T06:27:43.606Z,1009.04
2018-07-25T06:28:09.139Z,1009.07
2018-07-25T06:28:34.644Z,1009.06
2018-07-25T06:29:00.140Z,1009.06
2018-07-25T06:29:25.665Z,1009.06
2018-07-25T06:29:51.245Z,1009.05
2018-07-25T06:30:16.741Z,1009.07
2018-07-25T06:30:42.236Z,1009.06
2018-07-25T06:31:07.740Z,1009.06
2018-07-25T06:31:33.246Z,1009.09
2018-07-25T06:31:58.756Z,1009.09
2018-07-25T06:32:24.271Z,1009.07
2018-07-25T06:32:49.775Z,1009.09
2018-07-25T06:33:15.314Z,1009.1
2018-07-25T06:33:40.827Z,1009.07
2018-07-25T06:34:54.313Z,1009.06
2018-07-25T06:35:19.701Z,1009.09
2018-07-25T06:35:45.234Z,1009.06
2018-07-25T06:36:10.731Z,1009.05
2018-07-25T06:36:36.248Z,1009.12
2018-07-25T06:37:01.764Z,1009.06
2018-07-25T06:37:27.280Z,1009.07
2018-07-25T06:37:52.834Z,1009.08
2018-07-25T06:38:18.316Z,1009.07
2018-07-25T06:38:43.784Z,1009.06
2018-07-25T06:39:09.268Z,1009.08
2018-07-25T06:39:34.774Z,1009.08
2018-07-25T06:40:00.260Z,1009.07
2018-07-25T06:40:25.760Z,1009.11
2018-07-25T06:40:51.252Z,1009.11
2018-07-25T06:41:16.765Z,1009.11
2018-07-25T06:41:42.278Z,1009.11
2018-07-25T06:42:07.747Z,1009.13
2018-07-25T06:42:33.275Z,1009.1
2018-07-25T06:42:58.758Z,1009.12
2018-07-25T06:43:24.306Z,1009.13
2018-07-25T06:43:49.783Z,1009.13
2018-07-25T06:44:15.243Z,1009.16
2018-07-25T06:44:40.754Z,1009.13
2018-07-25T06:45:06.277Z,1009.13
2018-07-25T06:45:31.779Z,1009.15
2018-07-25T06:45:57.262Z,1009.16
2018-07-25T06:46:22.788Z,1009.16
2018-07-25T06:46:48.266Z,1009.17
2018-07-25T06:48:01.600Z,1009.16
2018-07-25T06:48:27.106Z,1009.13
2018-07-25T06:48:52.622Z,1009.14
2018-07-25T06:49:18.114Z,1009.19
2018-07-25T06:49:43.692Z,1009.17
2018-07-25T06:50:09.136Z,1009.14
2018-07-25T06:50:34.613Z,1009.15
2018-07-25T06:51:00.129Z,1009.17
2018-07-25T06:51:25.631Z,1009.17
2018-07-25T06:51:51.112Z,1009.18
2018-07-25T06:52:16.590Z,1009.18
2018-07-25T06:52:42.104Z,1009.15
2018-07-25T06:53:07.580Z,1009.15
2018-07-25T06:53:33.066Z,1009.15
2018-07-25T06:53:58.552Z,1009.13
2018-07-25T06:54:24.065Z,1009.13
2018-07-25T06:54:49.537Z,1009.18
2018-07-25T06:55:15.041Z,1009.17
2018-07-25T06:56:28.540Z,1009.13
2018-07-25T06:56:54.053Z,1009.17
2018-07-25T06:57:19.621Z,1009.15
2018-07-25T06:57:45.014Z,1009.17
2018-07-25T06:58:10.520Z,1009.14
2018-07-25T06:58:36.029Z,1009.17
2018-07-25T06:59:01.521Z,1009.14
2018-07-25T06:59:27.006Z,1009.2
2018-07-25T06:59:52.541Z,1009.14
2018-07-25T07:00:18.022Z,1009.18
2018-07-25T07:00:43.551Z,1009.17
2018-07-25T07:01:09.024Z,1009.18
2018-07-25T07:01:34.521Z,1009.17
2018-07-25T07:02:00.029Z,1009.19
2018-07-25T07:02:25.517Z,1009.21
2018-07-25T07:02:51.018Z,1009.18
2018-07-25T07:03:16.528Z,1009.18
2018-07-25T07:03:42.028Z,1009.18
2018-07-25T07:04:07.515Z,1009.24
2018-07-25T07:04:33.026Z,1009.21
2018-07-25T07:04:58.595Z,1009.2
2018-07-25T07:05:24.086Z,1009.21
2018-07-25T07:05:49.581Z,1009.23
2018-07-25T07:06:15.085Z,1009.19
2018-07-25T07:06:40.699Z,1009.24
2018-07-25T07:07:06.110Z,1009.24
2018-07-25T07:07:31.634Z,1009.27
2018-07-25T07:07:57.130Z,1009.24
2018-07-25T07:08:22.614Z,1009.24
2018-07-25T07:08:48.139Z,1009.27
2018-07-25T07:09:13.628Z,1009.23
2018-07-25T07:09:39.094Z,1009.26
2018-07-25T07:10:04.629Z,1009.21
2018-07-25T07:10:30.090Z,1009.21
2018-07-25T07:10:55.588Z,1009.27
2018-07-25T07:11:21.101Z,1009.23
2018-07-25T07:11:46.630Z,1009.22
2018-07-25T07:12:12.180Z,1009.23
2018-07-25T07:12:37.632Z,1009.2
2018-07-25T07:13:03.134Z,1009.2
2018-07-25T07:13:28.635Z,1009.23
2018-07-25T07:13:54.124Z,1009.23
2018-07-25T07:14:19.575Z,1009.23
2018-07-25T07:14:45.068Z,1009.25
2018-07-25T07:15:10.647Z,1009.21
2018-07-25T07:15:36.115Z,1009.21
2018-07-25T07:16:01.612Z,1009.22
2018-07-25T07:16:27.118Z,1009.19
2018-07-25T07:16:52.654Z,1009.26
2018-07-25T07:17:18.203Z,1009.24
2018-07-25T07:17:43.629Z,1009.2
2018-07-25T07:18:09.143Z,1009.3
2018-07-25T07:18:34.639Z,1009.28
2018-07-25T07:19:00.116Z,1009.26
2018-07-25T07:19:25.609Z,1009.26
2018-07-25T07:19:51.092Z,1009.25
2018-07-25T07:20:16.583Z,1009.3
2018-07-25T07:20:42.076Z,1009.25
2018-07-25T07:21:07.589Z,1009.27
2018-07-25T07:21:33.137Z,1009.25
2018-07-25T07:21:58.637Z,1009.25
2018-07-25T07:22:24.125Z,1009.27
2018-07-25T07:22:49.622Z,1009.29
2018-07-25T07:23:15.111Z,1009.27
2018-07-25T07:23:40.600Z,1009.31
2018-07-25T07:24:06.233Z,1009.3
2018-07-25T07:24:31.610Z,1009.3
2018-07-25T07:24:57.116Z,1009.29
2018-07-25T07:25:22.607Z,1009.28
2018-07-25T07:25:48.159Z,1009.33
2018-07-25T07:26:13.592Z,1009.32
2018-07-25T07:26:39.083Z,1009.32
2018-07-25T07:27:04.572Z,1009.32
2018-07-25T07:27:30.106Z,1009.34
2018-07-25T07:27:55.607Z,1009.33
2018-07-25T07:28:21.060Z,1009.31
2018-07-25T07:28:46.578Z,1009.36
2018-07-25T07:29:12.096Z,1009.33
2018-07-25T07:29:37.601Z,1009.31
2018-07-25T07:30:03.054Z,1009.31
2018-07-25T07:30:28.604Z,1009.32
2018-07-25T07:30:54.115Z,1009.31
2018-07-25T07:31:19.598Z,1009.29
2018-07-25T07:31:45.090Z,1009.26
2018-07-25T07:32:10.614Z,1009.29
2018-07-25T07:32:36.141Z,1009.31
2018-07-25T07:33:01.645Z,1009.29
2018-07-25T07:33:27.169Z,1009.31
2018-07-25T07:33:52.645Z,1009.34
2018-07-25T07:34:18.178Z,1009.31
2018-07-25T07:34:43.688Z,1009.26
2018-07-25T07:35:09.241Z,1009.28
2018-07-25T07:35:34.672Z,1009.29
2018-07-25T07:36:00.159Z,1009.27
2018-07-25T07:36:25.632Z,1009.3
2018-07-25T07:36:51.148Z,1009.27
2018-07-25T07:37:16.674Z,1009.25
2018-07-25T07:37:42.174Z,1009.24
2018-07-25T07:38:07.669Z,1009.26
2018-07-25T07:39:21.488Z,1009.25
2018-07-25T07:39:46.973Z,1009.28
2018-07-25T07:40:12.479Z,1009.3
2018-07-25T07:40:37.939Z,1009.26
2018-07-25T07:41:03.442Z,1009.22
2018-07-25T07:41:28.965Z,1009.28
2018-07-25T07:41:54.455Z,1009.29
2018-07-25T07:42:19.927Z,1009.3
2018-07-25T07:42:45.472Z,1009.25
2018-07-25T07:44:03.983Z,1009.26
2018-07-25T07:44:29.440Z,1009.31
2018-07-25T07:44:54.952Z,1009.28
2018-07-25T07:45:20.411Z,1009.28
2018-07-25T07:45:45.937Z,1009.31
2018-07-25T07:46:11.414Z,1009.3
2018-07-25T07:46:36.901Z,1009.33
2018-07-25T07:47:02.404Z,1009.36
2018-07-25T07:47:27.901Z,1009.33
2018-07-25T07:47:53.376Z,1009.35
2018-07-25T07:48:18.875Z,1009.32
2018-07-25T07:48:44.445Z,1009.3
2018-07-25T07:49:09.950Z,1009.32
2018-07-25T07:49:35.469Z,1009.33
2018-07-25T07:50:01.026Z,1009.34
2018-07-25T07:50:26.528Z,1009.29
2018-07-25T07:50:52.029Z,1009.32
2018-07-25T07:51:17.534Z,1009.34
2018-07-25T07:51:43.019Z,1009.35
2018-07-25T07:52:08.498Z,1009.32
2018-07-25T07:52:34.011Z,1009.35
2018-07-25T07:52:59.503Z,1009.34
2018-07-25T07:53:25.034Z,1009.3
2018-07-25T07:53:50.524Z,1009.33
2018-07-25T07:54:16.038Z,1009.32
2018-07-25T07:54:41.524Z,1009.32
2018-07-25T07:55:07.054Z,1009.32
2018-07-25T07:55:32.508Z,1009.33
2018-07-25T07:55:57.998Z,1009.32
2018-07-25T07:56:23.496Z,1009.32
2018-07-25T07:56:48.999Z,1009.35
2018-07-25T07:57:14.530Z,1009.3
2018-07-25T07:57:40.068Z,1009.3
2018-07-25T07:58:05.579Z,1009.29
2018-07-25T07:58:31.098Z,1009.3
2018-07-25T07:58:56.574Z,1009.28
2018-07-25T07:59:22.068Z,1009.29
2018-07-25T07:59:47.568Z,1009.3
2018-07-25T08:00:45.613Z,1009.28
2018-07-25T08:01:11.136Z,1009.31
2018-07-25T08:01:36.640Z,1009.28
2018-07-25T08:02:02.125Z,1009.28
2018-07-25T08:02:27.646Z,1009.3
2018-07-25T08:02:53.178Z,1009.28
2018-07-25T08:03:18.662Z,1009.3
2018-07-25T08:03:44.154Z,1009.25
2018-07-25T08:04:09.646Z,1009.3
2018-07-25T08:04:35.154Z,1009.26
2018-07-25T08:05:00.717Z,1009.26
2018-07-25T08:05:26.160Z,1009.3
2018-07-25T08:06:44.592Z,1009.3
2018-07-25T08:07:10.097Z,1009.32
2018-07-25T08:07:35.623Z,1009.32
2018-07-25T08:08:01.084Z,1009.3
2018-07-25T08:08:26.560Z,1009.31
2018-07-25T08:08:52.096Z,1009.32
2018-07-25T08:09:17.581Z,1009.29
2018-07-25T08:09:43.063Z,1009.32
2018-07-25T08:10:08.600Z,1009.34
2018-07-25T08:10:34.126Z,1009.31
2018-07-25T08:10:59.600Z,1009.31
2018-07-25T08:11:25.108Z,1009.31
2018-07-25T08:12:44.122Z,1009.36
2018-07-25T08:13:09.611Z,1009.35
2018-07-25T08:13:35.119Z,1009.36
2018-07-25T08:14:00.596Z,1009.38
2018-07-25T08:14:26.116Z,1009.36
2018-07-25T08:14:51.639Z,1009.35
2018-07-25T08:15:17.172Z,1009.38
2018-07-25T08:15:42.694Z,1009.35
2018-07-25T08:16:08.208Z,1009.36
2018-07-25T08:16:33.745Z,1009.35
2018-07-25T08:16:59.238Z,1009.36
2018-07-25T08:17:24.717Z,1009.4
2018-07-25T08:17:50.244Z,1009.41
2018-07-25T08:18:15.709Z,1009.37
2018-07-25T08:18:41.186Z,1009.4
2018-07-25T08:19:06.743Z,1009.37
2018-07-25T08:19:32.173Z,1009.38
2018-07-25T08:19:57.702Z,1009.39
2018-07-25T08:20:23.168Z,1009.41
2018-07-25T08:20:48.675Z,1009.43
2018-07-25T08:21:14.416Z,1009.39
2018-07-25T08:21:39.705Z,1009.36
2018-07-25T08:22:05.187Z,1009.4
2018-07-25T08:22:30.664Z,1009.37
2018-07-25T08:23:39.412Z,1009.4
2018-07-25T08:24:04.899Z,1009.4
2018-07-25T08:24:30.381Z,1009.37
2018-07-25T08:24:55.903Z,1009.42
2018-07-25T08:25:21.378Z,1009.36
2018-07-25T08:25:46.965Z,1009.39
2018-07-25T08:26:12.398Z,1009.36
2018-07-25T08:26:37.941Z,1009.37
2018-07-25T08:27:03.425Z,1009.37
2018-07-25T08:27:28.893Z,1009.35
2018-07-25T08:27:54.441Z,1009.36
2018-07-25T08:28:19.919Z,1009.35
2018-07-25T08:28:45.478Z,1009.42
2018-07-25T08:29:10.991Z,1009.4
2018-07-25T08:30:24.340Z,1009.38
2018-07-25T08:30:49.844Z,1009.41
2018-07-25T08:31:15.362Z,1009.4
2018-07-25T08:31:40.874Z,1009.38
2018-07-25T08:32:06.364Z,1009.35
2018-07-25T08:32:31.892Z,1009.4
2018-07-25T08:32:57.372Z,1009.38
2018-07-25T08:33:22.905Z,1009.37
2018-07-25T08:33:48.407Z,1009.36
2018-07-25T08:34:13.902Z,1009.37
2018-07-25T08:34:39.485Z,1009.37
2018-07-25T08:35:04.888Z,1009.39
2018-07-25T08:35:30.418Z,1009.36
2018-07-25T08:35:55.880Z,1009.38
2018-07-25T08:36:21.379Z,1009.38
2018-07-25T08:36:46.880Z,1009.37
2018-07-25T08:37:12.376Z,1009.38
2018-07-25T08:37:37.869Z,1009.35
2018-07-25T08:38:03.338Z,1009.37
2018-07-25T08:38:28.808Z,1009.37
2018-07-25T08:38:54.267Z,1009.35
2018-07-25T08:39:19.768Z,1009.35
2018-07-25T08:39:45.264Z,1009.33
2018-07-25T08:40:10.753Z,1009.31
2018-07-25T08:40:36.249Z,1009.34
2018-07-25T08:41:01.751Z,1009.33
2018-07-25T08:41:27.272Z,1009.36
2018-07-25T08:41:52.809Z,1009.38
2018-07-25T08:42:18.296Z,1009.33
2018-07-25T08:42:43.793Z,1009.32
2018-07-25T08:43:09.331Z,1009.35
2018-07-25T08:43:34.804Z,1009.3
2018-07-25T08:44:00.337Z,1009.32
2018-07-25T08:44:25.861Z,1009.35
2018-07-25T08:44:51.392Z,1009.29
2018-07-25T08:45:16.872Z,1009.31
2018-07-25T08:45:42.370Z,1009.33
2018-07-25T08:46:07.875Z,1009.32
2018-07-25T08:46:33.393Z,1009.32
2018-07-25T08:46:58.871Z,1009.28
2018-07-25T08:47:24.385Z,1009.28
2018-07-25T08:47:49.934Z,1009.29
2018-07-25T08:48:15.504Z,1009.3
2018-07-25T08:48:40.951Z,1009.33
2018-07-25T08:49:06.418Z,1009.33
2018-07-25T08:49:31.936Z,1009.33
2018-07-25T08:49:57.444Z,1009.3
2018-07-25T08:50:22.913Z,1009.33
2018-07-25T08:50:48.438Z,1009.29
2018-07-25T08:51:13.919Z,1009.33
2018-07-25T08:51:39.443Z,1009.3
2018-07-25T08:52:04.945Z,1009.3
2018-07-25T08:52:30.532Z,1009.34
2018-07-25T08:52:56.026Z,1009.31
2018-07-25T08:53:21.434Z,1009.29
2018-07-25T08:53:46.949Z,1009.29
2018-07-25T08:54:12.433Z,1009.3
2018-07-25T08:54:37.931Z,1009.28
2018-07-25T08:55:03.426Z,1009.3
2018-07-25T08:55:28.925Z,1009.29
2018-07-25T08:55:54.406Z,1009.28
2018-07-25T08:56:19.884Z,1009.27
2018-07-25T08:56:45.409Z,1009.28
2018-07-25T08:57:10.907Z,1009.3
2018-07-25T08:57:36.414Z,1009.28
2018-07-25T08:58:01.887Z,1009.29
2018-07-25T08:58:27.388Z,1009.29
2018-07-25T08:58:52.894Z,1009.26
2018-07-25T08:59:18.398Z,1009.3
2018-07-25T08:59:43.877Z,1009.3
2018-07-25T09:00:09.399Z,1009.29
2018-07-25T09:00:34.965Z,1009.26
2018-07-25T09:01:00.460Z,1009.29
2018-07-25T09:01:25.952Z,1009.27
2018-07-25T09:01:51.518Z,1009.27
2018-07-25T09:02:16.965Z,1009.29
2018-07-25T09:02:42.500Z,1009.31
2018-07-25T09:03:50.786Z,1009.25
2018-07-25T09:04:16.316Z,1009.28
2018-07-25T09:04:41.816Z,1009.29
2018-07-25T09:05:07.307Z,1009.27
2018-07-25T09:05:32.799Z,1009.27
2018-07-25T09:05:58.296Z,1009.27
2018-07-25T09:06:23.841Z,1009.23
2018-07-25T09:06:49.283Z,1009.26
2018-07-25T09:07:14.765Z,1009.24
2018-07-25T09:07:40.378Z,1009.23
2018-07-25T09:08:05.798Z,1009.27
2018-07-25T09:08:31.270Z,1009.29
2018-07-25T09:08:56.775Z,1009.26
2018-07-25T09:09:22.319Z,1009.29
2018-07-25T09:09:47.802Z,1009.26
2018-07-25T09:10:13.325Z,1009.27
2018-07-25T09:10:38.836Z,1009.29
2018-07-25T09:11:04.326Z,1009.27
2018-07-25T09:11:29.867Z,1009.28
2018-07-25T09:11:55.353Z,1009.29
2018-07-25T09:12:20.836Z,1009.25
2018-07-25T09:12:46.370Z,1009.27
2018-07-25T09:13:11.882Z,1009.26
2018-07-25T09:13:37.324Z,1009.25
2018-07-25T09:14:02.807Z,1009.26
2018-07-25T09:14:28.297Z,1009.26
2018-07-25T09:14:53.782Z,1009.25
2018-07-25T09:15:19.263Z,1009.24
2018-07-25T09:15:44.735Z,1009.28
2018-07-25T09:16:10.233Z,1009.27
2018-07-25T09:16:35.679Z,1009.24
2018-07-25T09:17:01.206Z,1009.25
2018-07-25T09:17:26.704Z,1009.24
2018-07-25T09:17:52.264Z,1009.25
2018-07-25T09:18:17.705Z,1009.22
2018-07-25T09:18:43.201Z,1009.25
2018-07-25T09:19:08.712Z,1009.23
2018-07-25T09:19:34.196Z,1009.25
2018-07-25T09:19:59.671Z,1009.22
2018-07-25T09:20:25.170Z,1009.22
2018-07-25T09:20:50.675Z,1009.25
2018-07-25T09:21:16.187Z,1009.25
2018-07-25T09:21:41.734Z,1009.25
2018-07-25T09:22:07.188Z,1009.24
2018-07-25T09:22:32.705Z,1009.23
2018-07-25T09:22:58.247Z,1009.22
2018-07-25T09:23:23.726Z,1009.2
2018-07-25T09:23:49.250Z,1009.22
2018-07-25T09:24:14.767Z,1009.24
2018-07-25T09:24:40.253Z,1009.2
2018-07-25T09:25:05.794Z,1009.21
2018-07-25T09:25:31.234Z,1009.19
2018-07-25T09:25:56.678Z,1009.21
2018-07-25T09:26:22.195Z,1009.21
2018-07-25T09:26:47.699Z,1009.21
2018-07-25T09:27:13.175Z,1009.19
2018-07-25T09:27:38.701Z,1009.21
2018-07-25T09:28:04.181Z,1009.22
2018-07-25T09:28:29.687Z,1009.22
2018-07-25T09:28:55.224Z,1009.22
2018-07-25T09:29:20.728Z,1009.2
2018-07-25T09:29:46.196Z,1009.22
2018-07-25T09:30:11.701Z,1009.23
2018-07-25T09:30:37.203Z,1009.25
2018-07-25T09:31:02.691Z,1009.23
2018-07-25T09:31:28.192Z,1009.2
2018-07-25T09:31:53.697Z,1009.19
2018-07-25T09:32:19.231Z,1009.24